sensor_id;sensor_type;location;lat;lon;timestamp;P1;durP1;ratioP1;P2;durP2;ratioP2
16579;SDS011;8402;51.466;6.806;2023-09-12T00:00:15;16.48;;;10.82;;
16579;SDS011;8402;51.466;6.806;2023-09-12T00:02:45;12.27;;;8.13;;
16579;SDS011;8402;51.466;6.806;2023-09-12T00:05:15;13.43;;;7.95;;
16579;SDS011;8402;51.466;6.806;2023-09-12T00:07:45;10.30;;;7.82;;
16579;SDS011;8402;51.466;6.806;2023-09-12T00:10:16;14.38;;;9.25;;
16579;SDS011;8402;51.466;6.806;2023-09-12T00:12:48;15.73;;;9.35;;
16579;SDS011;8402;51.466;6.806;2023-09-12T00:15:18;13.27;;;9.55;;
16579;SDS011;8402;51.466;6.806;2023-09-12T00:17:51;16.50;;;9.57;;
16579;SDS011;8402;51.466;6.806;2023-09-12T00:20:21;13.68;;;9.63;;
16579;SDS011;8402;51.466;6.806;2023-09-12T00:22:51;16.23;;;11.48;;
16579;SDS011;8402;51.466;6.806;2023-09-12T00:25:22;17.88;;;11.52;;
16579;SDS011;8402;51.466;6.806;2023-09-12T00:27:55;19.77;;;11.93;;
16579;SDS011;8402;51.466;6.806;2023-09-12T00:30:25;18.83;;;12.52;;
16579;SDS011;8402;51.466;6.806;2023-09-12T00:32:55;20.10;;;12.95;;
16579;SDS011;8402;51.466;6.806;2023-09-12T00:35:25;17.60;;;11.25;;
16579;SDS011;8402;51.466;6.806;2023-09-12T00:37:55;24.55;;;12.20;;
16579;SDS011;8402;51.466;6.806;2023-09-12T00:40:25;28.35;;;13.32;;
16579;SDS011;8402;51.466;6.806;2023-09-12T00:42:58;20.98;;;12.55;;
16579;SDS011;8402;51.466;6.806;2023-09-12T00:45:28;21.13;;;12.18;;
16579;SDS011;8402;51.466;6.806;2023-09-12T00:47:58;23.27;;;13.40;;
16579;SDS011;8402;51.466;6.806;2023-09-12T00:50:31;33.33;;;14.73;;
16579;SDS011;8402;51.466;6.806;2023-09-12T00:53:02;24.77;;;13.80;;
16579;SDS011;8402;51.466;6.806;2023-09-12T00:55:33;22.35;;;13.10;;
16579;SDS011;8402;51.466;6.806;2023-09-12T00:58:09;22.15;;;12.77;;
16579;SDS011;8402;51.466;6.806;2023-09-12T01:00:40;23.98;;;12.45;;
16579;SDS011;8402;51.466;6.806;2023-09-12T01:03:10;22.77;;;13.07;;
16579;SDS011;8402;51.466;6.806;2023-09-12T01:05:41;20.85;;;13.20;;
16579;SDS011;8402;51.466;6.806;2023-09-12T01:08:12;26.35;;;14.52;;
16579;SDS011;8402;51.466;6.806;2023-09-12T01:10:42;24.63;;;13.50;;
16579;SDS011;8402;51.466;6.806;2023-09-12T01:13:16;20.25;;;12.75;;
16579;SDS011;8402;51.466;6.806;2023-09-12T01:15:46;22.95;;;14.35;;
16579;SDS011;8402;51.466;6.806;2023-09-12T01:18:16;27.02;;;14.32;;
16579;SDS011;8402;51.466;6.806;2023-09-12T01:20:50;20.15;;;12.60;;
16579;SDS011;8402;51.466;6.806;2023-09-12T01:23:34;20.52;;;12.55;;
16579;SDS011;8402;51.466;6.806;2023-09-12T01:26:21;24.90;;;13.50;;
16579;SDS011;8402;51.466;6.806;2023-09-12T01:29:01;23.20;;;12.40;;
16579;SDS011;8402;51.466;6.806;2023-09-12T01:31:36;20.70;;;13.50;;
16579;SDS011;8402;51.466;6.806;2023-09-12T01:34:10;21.35;;;13.20;;
16579;SDS011;8402;51.466;6.806;2023-09-12T01:36:41;20.95;;;12.68;;
16579;SDS011;8402;51.466;6.806;2023-09-12T01:39:11;24.38;;;12.88;;
16579;SDS011;8402;51.466;6.806;2023-09-12T01:41:41;22.27;;;14.07;;
16579;SDS011;8402;51.466;6.806;2023-09-12T01:44:17;21.35;;;13.65;;
16579;SDS011;8402;51.466;6.806;2023-09-12T01:46:50;24.60;;;14.85;;
16579;SDS011;8402;51.466;6.806;2023-09-12T01:49:22;19.35;;;13.40;;
16579;SDS011;8402;51.466;6.806;2023-09-12T01:51:53;23.17;;;11.50;;
16579;SDS011;8402;51.466;6.806;2023-09-12T01:54:25;19.02;;;12.98;;
16579;SDS011;8402;51.466;6.806;2023-09-12T01:56:55;18.73;;;12.98;;
16579;SDS011;8402;51.466;6.806;2023-09-12T01:59:29;24.00;;;13.98;;
16579;SDS011;8402;51.466;6.806;2023-09-12T02:01:59;20.75;;;14.00;;
16579;SDS011;8402;51.466;6.806;2023-09-12T02:04:29;20.27;;;13.07;;
16579;SDS011;8402;51.466;6.806;2023-09-12T02:06:59;22.25;;;13.68;;
16579;SDS011;8402;51.466;6.806;2023-09-12T02:09:28;22.92;;;13.98;;
16579;SDS011;8402;51.466;6.806;2023-09-12T02:11:58;21.90;;;14.27;;
16579;SDS011;8402;51.466;6.806;2023-09-12T02:14:31;24.23;;;13.18;;
16579;SDS011;8402;51.466;6.806;2023-09-12T02:17:01;24.10;;;14.50;;
16579;SDS011;8402;51.466;6.806;2023-09-12T02:19:31;22.83;;;14.73;;
16579;SDS011;8402;51.466;6.806;2023-09-12T02:22:01;20.90;;;13.40;;
16579;SDS011;8402;51.466;6.806;2023-09-12T02:24:31;21.88;;;13.57;;
16579;SDS011;8402;51.466;6.806;2023-09-12T02:27:04;15.93;;;11.45;;
16579;SDS011;8402;51.466;6.806;2023-09-12T02:29:37;24.30;;;15.40;;
16579;SDS011;8402;51.466;6.806;2023-09-12T02:32:07;23.58;;;15.77;;
16579;SDS011;8402;51.466;6.806;2023-09-12T02:34:37;23.45;;;14.90;;
16579;SDS011;8402;51.466;6.806;2023-09-12T02:37:07;22.58;;;14.63;;
16579;SDS011;8402;51.466;6.806;2023-09-12T02:39:37;23.38;;;13.85;;
16579;SDS011;8402;51.466;6.806;2023-09-12T02:42:07;21.10;;;13.73;;
16579;SDS011;8402;51.466;6.806;2023-09-12T02:44:39;21.25;;;14.80;;
16579;SDS011;8402;51.466;6.806;2023-09-12T02:47:09;23.02;;;14.00;;
16579;SDS011;8402;51.466;6.806;2023-09-12T02:49:39;21.77;;;14.30;;
16579;SDS011;8402;51.466;6.806;2023-09-12T02:52:09;21.75;;;14.25;;
16579;SDS011;8402;51.466;6.806;2023-09-12T02:54:39;19.30;;;14.07;;
16579;SDS011;8402;51.466;6.806;2023-09-12T02:57:09;26.23;;;15.10;;
16579;SDS011;8402;51.466;6.806;2023-09-12T02:59:41;23.73;;;14.35;;
16579;SDS011;8402;51.466;6.806;2023-09-12T03:02:11;26.17;;;14.45;;
16579;SDS011;8402;51.466;6.806;2023-09-12T03:04:41;18.95;;;13.85;;
16579;SDS011;8402;51.466;6.806;2023-09-12T03:07:11;21.52;;;13.90;;
16579;SDS011;8402;51.466;6.806;2023-09-12T03:09:41;24.08;;;15.30;;
16579;SDS011;8402;51.466;6.806;2023-09-12T03:12:11;22.33;;;15.18;;
16579;SDS011;8402;51.466;6.806;2023-09-12T03:14:43;23.65;;;13.70;;
16579;SDS011;8402;51.466;6.806;2023-09-12T03:17:13;22.63;;;14.93;;
16579;SDS011;8402;51.466;6.806;2023-09-12T03:19:43;21.95;;;14.73;;
16579;SDS011;8402;51.466;6.806;2023-09-12T03:22:13;20.55;;;14.35;;
16579;SDS011;8402;51.466;6.806;2023-09-12T03:24:43;20.92;;;13.30;;
16579;SDS011;8402;51.466;6.806;2023-09-12T03:27:13;23.13;;;15.10;;
16579;SDS011;8402;51.466;6.806;2023-09-12T03:29:48;21.23;;;13.88;;
16579;SDS011;8402;51.466;6.806;2023-09-12T03:32:18;22.30;;;15.02;;
16579;SDS011;8402;51.466;6.806;2023-09-12T03:34:48;28.52;;;16.90;;
16579;SDS011;8402;51.466;6.806;2023-09-12T03:37:18;25.60;;;17.75;;
16579;SDS011;8402;51.466;6.806;2023-09-12T03:39:48;27.33;;;18.60;;
16579;SDS011;8402;51.466;6.806;2023-09-12T03:42:18;26.45;;;17.83;;
16579;SDS011;8402;51.466;6.806;2023-09-12T03:44:52;29.48;;;18.02;;
16579;SDS011;8402;51.466;6.806;2023-09-12T03:47:22;25.92;;;17.55;;
16579;SDS011;8402;51.466;6.806;2023-09-12T03:49:52;27.30;;;18.02;;
16579;SDS011;8402;51.466;6.806;2023-09-12T03:52:22;26.45;;;17.77;;
16579;SDS011;8402;51.466;6.806;2023-09-12T03:54:51;28.50;;;19.08;;
16579;SDS011;8402;51.466;6.806;2023-09-12T03:57:21;26.52;;;17.33;;
16579;SDS011;8402;51.466;6.806;2023-09-12T03:59:54;27.58;;;18.25;;
16579;SDS011;8402;51.466;6.806;2023-09-12T04:02:24;27.90;;;17.65;;
16579;SDS011;8402;51.466;6.806;2023-09-12T04:04:54;30.20;;;18.65;;
16579;SDS011;8402;51.466;6.806;2023-09-12T04:07:26;26.17;;;18.30;;
16579;SDS011;8402;51.466;6.806;2023-09-12T04:09:56;30.27;;;18.83;;
16579;SDS011;8402;51.466;6.806;2023-09-12T04:12:26;33.63;;;20.17;;
16579;SDS011;8402;51.466;6.806;2023-09-12T04:14:58;27.20;;;18.13;;
16579;SDS011;8402;51.466;6.806;2023-09-12T04:17:28;31.58;;;18.25;;
16579;SDS011;8402;51.466;6.806;2023-09-12T04:19:58;29.88;;;20.17;;
16579;SDS011;8402;51.466;6.806;2023-09-12T04:22:28;29.60;;;20.73;;
16579;SDS011;8402;51.466;6.806;2023-09-12T04:24:58;30.08;;;18.70;;
16579;SDS011;8402;51.466;6.806;2023-09-12T04:27:28;30.80;;;19.52;;
16579;SDS011;8402;51.466;6.806;2023-09-12T04:30:00;27.58;;;18.85;;
16579;SDS011;8402;51.466;6.806;2023-09-12T04:32:31;28.30;;;19.60;;
16579;SDS011;8402;51.466;6.806;2023-09-12T04:35:01;28.35;;;18.25;;
16579;SDS011;8402;51.466;6.806;2023-09-12T04:37:31;33.58;;;20.58;;
16579;SDS011;8402;51.466;6.806;2023-09-12T04:40:01;33.00;;;21.35;;
16579;SDS011;8402;51.466;6.806;2023-09-12T04:42:31;28.05;;;18.40;;
16579;SDS011;8402;51.466;6.806;2023-09-12T04:45:04;37.92;;;20.75;;
16579;SDS011;8402;51.466;6.806;2023-09-12T04:47:35;33.08;;;19.92;;
16579;SDS011;8402;51.466;6.806;2023-09-12T04:50:05;30.50;;;19.25;;
16579;SDS011;8402;51.466;6.806;2023-09-12T04:52:35;28.48;;;18.63;;
16579;SDS011;8402;51.466;6.806;2023-09-12T04:55:05;27.63;;;18.52;;
16579;SDS011;8402;51.466;6.806;2023-09-12T04:57:36;28.42;;;19.00;;
16579;SDS011;8402;51.466;6.806;2023-09-12T05:00:11;28.17;;;19.27;;
16579;SDS011;8402;51.466;6.806;2023-09-12T05:02:42;29.67;;;18.38;;
16579;SDS011;8402;51.466;6.806;2023-09-12T05:05:12;27.40;;;18.80;;
16579;SDS011;8402;51.466;6.806;2023-09-12T05:07:42;29.42;;;18.17;;
16579;SDS011;8402;51.466;6.806;2023-09-12T05:10:12;30.85;;;19.83;;
16579;SDS011;8402;51.466;6.806;2023-09-12T05:12:41;27.67;;;18.88;;
16579;SDS011;8402;51.466;6.806;2023-09-12T05:15:14;30.48;;;19.05;;
16579;SDS011;8402;51.466;6.806;2023-09-12T05:17:44;29.20;;;19.50;;
16579;SDS011;8402;51.466;6.806;2023-09-12T05:20:14;29.27;;;18.25;;
16579;SDS011;8402;51.466;6.806;2023-09-12T05:22:44;24.80;;;16.90;;
16579;SDS011;8402;51.466;6.806;2023-09-12T05:25:14;29.65;;;19.00;;
16579;SDS011;8402;51.466;6.806;2023-09-12T05:27:44;28.48;;;18.67;;
16579;SDS011;8402;51.466;6.806;2023-09-12T05:30:17;32.13;;;18.27;;
16579;SDS011;8402;51.466;6.806;2023-09-12T05:32:46;31.63;;;19.45;;
16579;SDS011;8402;51.466;6.806;2023-09-12T05:35:17;31.83;;;18.75;;
16579;SDS011;8402;51.466;6.806;2023-09-12T05:37:48;36.70;;;21.50;;
16579;SDS011;8402;51.466;6.806;2023-09-12T05:40:18;31.30;;;19.10;;
16579;SDS011;8402;51.466;6.806;2023-09-12T05:42:49;33.45;;;21.85;;
16579;SDS011;8402;51.466;6.806;2023-09-12T05:45:22;36.70;;;22.27;;
16579;SDS011;8402;51.466;6.806;2023-09-12T05:47:52;38.78;;;20.90;;
16579;SDS011;8402;51.466;6.806;2023-09-12T05:50:22;34.13;;;21.38;;
16579;SDS011;8402;51.466;6.806;2023-09-12T05:52:52;38.33;;;21.60;;
16579;SDS011;8402;51.466;6.806;2023-09-12T05:55:22;35.35;;;20.58;;
16579;SDS011;8402;51.466;6.806;2023-09-12T05:57:52;41.03;;;24.60;;
16579;SDS011;8402;51.466;6.806;2023-09-12T06:00:25;33.97;;;21.27;;
16579;SDS011;8402;51.466;6.806;2023-09-12T06:02:55;37.50;;;23.30;;
16579;SDS011;8402;51.466;6.806;2023-09-12T06:05:25;37.47;;;23.17;;
16579;SDS011;8402;51.466;6.806;2023-09-12T06:07:55;42.97;;;24.88;;
16579;SDS011;8402;51.466;6.806;2023-09-12T06:10:26;35.47;;;21.27;;
16579;SDS011;8402;51.466;6.806;2023-09-12T06:12:56;42.63;;;24.08;;
16579;SDS011;8402;51.466;6.806;2023-09-12T06:15:28;43.50;;;24.48;;
16579;SDS011;8402;51.466;6.806;2023-09-12T06:17:58;41.95;;;22.02;;
16579;SDS011;8402;51.466;6.806;2023-09-12T06:20:28;40.72;;;20.10;;
16579;SDS011;8402;51.466;6.806;2023-09-12T06:22:58;31.90;;;15.45;;
16579;SDS011;8402;51.466;6.806;2023-09-12T06:25:30;36.00;;;17.38;;
16579;SDS011;8402;51.466;6.806;2023-09-12T06:28:00;29.33;;;13.93;;
16579;SDS011;8402;51.466;6.806;2023-09-12T06:30:33;27.35;;;12.48;;
16579;SDS011;8402;51.466;6.806;2023-09-12T06:33:03;23.98;;;12.65;;
16579;SDS011;8402;51.466;6.806;2023-09-12T06:35:33;22.83;;;11.73;;
16579;SDS011;8402;51.466;6.806;2023-09-12T06:38:06;18.75;;;10.15;;
16579;SDS011;8402;51.466;6.806;2023-09-12T06:40:36;19.25;;;10.27;;
16579;SDS011;8402;51.466;6.806;2023-09-12T06:43:06;18.00;;;10.38;;
16579;SDS011;8402;51.466;6.806;2023-09-12T06:45:39;19.75;;;10.82;;
16579;SDS011;8402;51.466;6.806;2023-09-12T06:48:10;19.40;;;12.07;;
16579;SDS011;8402;51.466;6.806;2023-09-12T06:50:40;19.98;;;10.60;;
16579;SDS011;8402;51.466;6.806;2023-09-12T06:53:16;28.23;;;10.43;;
16579;SDS011;8402;51.466;6.806;2023-09-12T06:55:46;18.65;;;10.60;;
16579;SDS011;8402;51.466;6.806;2023-09-12T06:58:16;21.73;;;11.00;;
16579;SDS011;8402;51.466;6.806;2023-09-12T07:00:49;18.55;;;10.00;;
16579;SDS011;8402;51.466;6.806;2023-09-12T07:03:19;16.92;;;9.52;;
16579;SDS011;8402;51.466;6.806;2023-09-12T07:05:49;16.75;;;9.52;;
16579;SDS011;8402;51.466;6.806;2023-09-12T07:08:19;19.52;;;9.05;;
16579;SDS011;8402;51.466;6.806;2023-09-12T07:10:49;14.02;;;8.10;;
16579;SDS011;8402;51.466;6.806;2023-09-12T07:13:21;15.15;;;8.30;;
16579;SDS011;8402;51.466;6.806;2023-09-12T07:15:53;14.07;;;8.52;;
16579;SDS011;8402;51.466;6.806;2023-09-12T07:18:26;13.55;;;8.73;;
16579;SDS011;8402;51.466;6.806;2023-09-12T07:20:59;14.35;;;8.23;;
16579;SDS011;8402;51.466;6.806;2023-09-12T07:23:30;14.10;;;8.05;;
16579;SDS011;8402;51.466;6.806;2023-09-12T07:26:00;13.52;;;7.35;;
16579;SDS011;8402;51.466;6.806;2023-09-12T07:28:30;11.93;;;7.60;;
16579;SDS011;8402;51.466;6.806;2023-09-12T07:31:03;11.82;;;7.40;;
16579;SDS011;8402;51.466;6.806;2023-09-12T07:33:33;11.20;;;6.75;;
16579;SDS011;8402;51.466;6.806;2023-09-12T07:36:03;12.00;;;6.30;;
16579;SDS011;8402;51.466;6.806;2023-09-12T07:38:33;14.18;;;5.97;;
16579;SDS011;8402;51.466;6.806;2023-09-12T07:41:04;11.75;;;6.00;;
16579;SDS011;8402;51.466;6.806;2023-09-12T07:43:34;10.75;;;6.40;;
16579;SDS011;8402;51.466;6.806;2023-09-12T07:46:07;14.50;;;6.97;;
16579;SDS011;8402;51.466;6.806;2023-09-12T07:48:37;11.88;;;7.25;;
16579;SDS011;8402;51.466;6.806;2023-09-12T07:51:13;10.98;;;7.75;;
16579;SDS011;8402;51.466;6.806;2023-09-12T07:53:44;15.18;;;8.43;;
16579;SDS011;8402;51.466;6.806;2023-09-12T07:56:14;16.88;;;10.20;;
16579;SDS011;8402;51.466;6.806;2023-09-12T07:58:44;19.70;;;11.50;;
16579;SDS011;8402;51.466;6.806;2023-09-12T08:01:16;14.27;;;9.57;;
16579;SDS011;8402;51.466;6.806;2023-09-12T08:03:46;17.65;;;10.05;;
16579;SDS011;8402;51.466;6.806;2023-09-12T08:06:17;20.35;;;12.48;;
16579;SDS011;8402;51.466;6.806;2023-09-12T08:08:47;23.48;;;12.27;;
16579;SDS011;8402;51.466;6.806;2023-09-12T08:11:17;21.35;;;12.38;;
16579;SDS011;8402;51.466;6.806;2023-09-12T08:13:48;22.27;;;12.57;;
16579;SDS011;8402;51.466;6.806;2023-09-12T08:16:24;23.42;;;12.18;;
16579;SDS011;8402;51.466;6.806;2023-09-12T08:18:54;22.35;;;13.18;;
16579;SDS011;8402;51.466;6.806;2023-09-12T08:21:24;20.75;;;12.57;;
16579;SDS011;8402;51.466;6.806;2023-09-12T08:23:56;19.15;;;12.50;;
16579;SDS011;8402;51.466;6.806;2023-09-12T08:26:25;20.92;;;13.40;;
16579;SDS011;8402;51.466;6.806;2023-09-12T08:28:58;24.02;;;16.50;;
16579;SDS011;8402;51.466;6.806;2023-09-12T08:31:30;24.95;;;16.55;;
16579;SDS011;8402;51.466;6.806;2023-09-12T08:34:00;24.20;;;16.90;;
16579;SDS011;8402;51.466;6.806;2023-09-12T08:36:31;24.17;;;17.13;;
16579;SDS011;8402;51.466;6.806;2023-09-12T08:39:02;22.50;;;16.23;;
16579;SDS011;8402;51.466;6.806;2023-09-12T08:41:35;25.25;;;16.27;;
16579;SDS011;8402;51.466;6.806;2023-09-12T08:44:06;25.33;;;18.13;;
16579;SDS011;8402;51.466;6.806;2023-09-12T08:46:39;25.67;;;17.60;;
16579;SDS011;8402;51.466;6.806;2023-09-12T08:49:11;26.98;;;18.80;;
16579;SDS011;8402;51.466;6.806;2023-09-12T08:51:42;27.60;;;18.23;;
16579;SDS011;8402;51.466;6.806;2023-09-12T08:54:12;30.25;;;18.85;;
16579;SDS011;8402;51.466;6.806;2023-09-12T08:56:42;21.50;;;15.75;;
16579;SDS011;8402;51.466;6.806;2023-09-12T08:59:13;21.88;;;15.27;;
16579;SDS011;8402;51.466;6.806;2023-09-12T09:01:47;22.83;;;15.05;;
16579;SDS011;8402;51.466;6.806;2023-09-12T09:04:18;20.65;;;15.07;;
16579;SDS011;8402;51.466;6.806;2023-09-12T09:06:49;19.30;;;13.57;;
16579;SDS011;8402;51.466;6.806;2023-09-12T09:09:19;20.70;;;14.23;;
16579;SDS011;8402;51.466;6.806;2023-09-12T09:11:50;18.63;;;13.10;;
16579;SDS011;8402;51.466;6.806;2023-09-12T09:14:20;23.40;;;13.55;;
16579;SDS011;8402;51.466;6.806;2023-09-12T09:16:53;18.17;;;13.05;;
16579;SDS011;8402;51.466;6.806;2023-09-12T09:19:26;18.98;;;13.57;;
16579;SDS011;8402;51.466;6.806;2023-09-12T09:22:13;18.63;;;13.02;;
16579;SDS011;8402;51.466;6.806;2023-09-12T09:24:42;19.98;;;13.15;;
16579;SDS011;8402;51.466;6.806;2023-09-12T09:27:13;22.42;;;12.93;;
16579;SDS011;8402;51.466;6.806;2023-09-12T09:30:03;19.60;;;12.32;;
16579;SDS011;8402;51.466;6.806;2023-09-12T09:32:36;17.05;;;11.50;;
16579;SDS011;8402;51.466;6.806;2023-09-12T09:35:06;17.98;;;12.15;;
16579;SDS011;8402;51.466;6.806;2023-09-12T09:37:38;17.55;;;12.63;;
16579;SDS011;8402;51.466;6.806;2023-09-12T09:40:08;15.73;;;11.75;;
16579;SDS011;8402;51.466;6.806;2023-09-12T09:42:39;14.55;;;9.77;;
16579;SDS011;8402;51.466;6.806;2023-09-12T09:45:09;17.05;;;10.90;;
16579;SDS011;8402;51.466;6.806;2023-09-12T09:47:42;17.23;;;13.13;;
16579;SDS011;8402;51.466;6.806;2023-09-12T09:50:13;14.77;;;9.95;;
16579;SDS011;8402;51.466;6.806;2023-09-12T09:52:44;11.80;;;8.82;;
16579;SDS011;8402;51.466;6.806;2023-09-12T09:55:13;11.38;;;8.65;;
16579;SDS011;8402;51.466;6.806;2023-09-12T09:57:44;9.65;;;7.10;;
16579;SDS011;8402;51.466;6.806;2023-09-12T10:00:14;10.55;;;8.15;;
16579;SDS011;8402;51.466;6.806;2023-09-12T10:02:47;9.25;;;6.53;;
16579;SDS011;8402;51.466;6.806;2023-09-12T10:05:19;10.23;;;7.53;;
16579;SDS011;8402;51.466;6.806;2023-09-12T10:07:50;9.95;;;6.70;;
16579;SDS011;8402;51.466;6.806;2023-09-12T10:10:25;6.85;;;5.10;;
16579;SDS011;8402;51.466;6.806;2023-09-12T10:12:57;6.90;;;5.32;;
16579;SDS011;8402;51.466;6.806;2023-09-12T10:15:28;7.35;;;5.80;;
16579;SDS011;8402;51.466;6.806;2023-09-12T10:18:04;8.77;;;6.50;;
16579;SDS011;8402;51.466;6.806;2023-09-12T10:20:42;9.32;;;6.13;;
16579;SDS011;8402;51.466;6.806;2023-09-12T10:23:18;8.23;;;6.45;;
16579;SDS011;8402;51.466;6.806;2023-09-12T10:25:52;7.90;;;5.60;;
16579;SDS011;8402;51.466;6.806;2023-09-12T10:28:24;7.22;;;6.28;;
16579;SDS011;8402;51.466;6.806;2023-09-12T10:30:55;6.70;;;5.50;;
16579;SDS011;8402;51.466;6.806;2023-09-12T10:33:30;7.53;;;6.43;;
16579;SDS011;8402;51.466;6.806;2023-09-12T10:36:01;8.95;;;6.55;;
16579;SDS011;8402;51.466;6.806;2023-09-12T10:38:33;9.60;;;6.97;;
16579;SDS011;8402;51.466;6.806;2023-09-12T10:41:11;9.00;;;6.57;;
16579;SDS011;8402;51.466;6.806;2023-09-12T10:43:42;6.90;;;5.97;;
16579;SDS011;8402;51.466;6.806;2023-09-12T10:46:15;7.97;;;5.25;;
16579;SDS011;8402;51.466;6.806;2023-09-12T10:48:50;5.97;;;4.78;;
16579;SDS011;8402;51.466;6.806;2023-09-12T10:51:21;4.88;;;4.18;;
16579;SDS011;8402;51.466;6.806;2023-09-12T10:53:51;4.88;;;4.15;;
16579;SDS011;8402;51.466;6.806;2023-09-12T10:56:21;6.72;;;5.50;;
16579;SDS011;8402;51.466;6.806;2023-09-12T10:59:13;7.80;;;4.85;;
16579;SDS011;8402;51.466;6.806;2023-09-12T11:01:43;5.90;;;4.47;;
16579;SDS011;8402;51.466;6.806;2023-09-12T11:04:33;7.43;;;4.60;;
16579;SDS011;8402;51.466;6.806;2023-09-12T11:10:19;6.30;;;4.47;;
16579;SDS011;8402;51.466;6.806;2023-09-12T11:12:50;7.95;;;4.35;;
16579;SDS011;8402;51.466;6.806;2023-09-12T11:15:23;6.47;;;4.93;;
16579;SDS011;8402;51.466;6.806;2023-09-12T11:18:00;7.28;;;4.43;;
16579;SDS011;8402;51.466;6.806;2023-09-12T11:23:22;5.40;;;4.90;;
16579;SDS011;8402;51.466;6.806;2023-09-12T11:26:02;5.00;;;4.10;;
16579;SDS011;8402;51.466;6.806;2023-09-12T11:28:34;4.97;;;4.20;;
16579;SDS011;8402;51.466;6.806;2023-09-12T11:31:04;5.07;;;3.70;;
16579;SDS011;8402;51.466;6.806;2023-09-12T11:33:35;5.72;;;4.15;;
16579;SDS011;8402;51.466;6.806;2023-09-12T11:36:15;5.38;;;4.32;;
16579;SDS011;8402;51.466;6.806;2023-09-12T11:38:49;6.03;;;4.47;;
16579;SDS011;8402;51.466;6.806;2023-09-12T11:44:09;7.72;;;4.45;;
16579;SDS011;8402;51.466;6.806;2023-09-12T11:46:41;9.60;;;4.65;;
16579;SDS011;8402;51.466;6.806;2023-09-12T11:49:11;6.00;;;4.30;;
16579;SDS011;8402;51.466;6.806;2023-09-12T11:51:50;6.80;;;4.68;;
16579;SDS011;8402;51.466;6.806;2023-09-12T11:54:24;5.68;;;4.25;;
16579;SDS011;8402;51.466;6.806;2023-09-12T11:56:55;9.63;;;4.60;;
16579;SDS011;8402;51.466;6.806;2023-09-12T11:59:26;5.90;;;4.20;;
16579;SDS011;8402;51.466;6.806;2023-09-12T12:01:56;5.68;;;4.40;;
16579;SDS011;8402;51.466;6.806;2023-09-12T12:04:26;5.78;;;4.47;;
16579;SDS011;8402;51.466;6.806;2023-09-12T12:07:00;8.50;;;4.60;;
16579;SDS011;8402;51.466;6.806;2023-09-12T12:09:30;7.15;;;4.72;;
16579;SDS011;8402;51.466;6.806;2023-09-12T12:12:03;5.13;;;4.63;;
16579;SDS011;8402;51.466;6.806;2023-09-12T12:14:38;5.85;;;4.85;;
16579;SDS011;8402;51.466;6.806;2023-09-12T12:17:09;5.43;;;4.30;;
16579;SDS011;8402;51.466;6.806;2023-09-12T12:19:44;5.15;;;4.57;;
16579;SDS011;8402;51.466;6.806;2023-09-12T12:22:17;8.30;;;5.22;;
16579;SDS011;8402;51.466;6.806;2023-09-12T12:24:48;6.88;;;4.97;;
16579;SDS011;8402;51.466;6.806;2023-09-12T12:27:19;6.40;;;4.85;;
16579;SDS011;8402;51.466;6.806;2023-09-12T12:29:52;5.57;;;4.95;;
16579;SDS011;8402;51.466;6.806;2023-09-12T12:32:22;7.82;;;5.75;;
16579;SDS011;8402;51.466;6.806;2023-09-12T12:34:52;6.68;;;4.85;;
16579;SDS011;8402;51.466;6.806;2023-09-12T12:37:44;7.97;;;5.40;;
16579;SDS011;8402;51.466;6.806;2023-09-12T12:40:20;6.20;;;4.90;;
16579;SDS011;8402;51.466;6.806;2023-09-12T12:42:51;9.73;;;5.50;;
16579;SDS011;8402;51.466;6.806;2023-09-12T12:45:22;8.27;;;5.18;;
16579;SDS011;8402;51.466;6.806;2023-09-12T12:47:57;7.00;;;5.13;;
16579;SDS011;8402;51.466;6.806;2023-09-12T12:50:28;8.00;;;4.90;;
16579;SDS011;8402;51.466;6.806;2023-09-12T12:53:00;12.80;;;5.72;;
16579;SDS011;8402;51.466;6.806;2023-09-12T12:55:30;6.63;;;5.15;;
16579;SDS011;8402;51.466;6.806;2023-09-12T12:58:01;8.70;;;7.32;;
16579;SDS011;8402;51.466;6.806;2023-09-12T13:00:33;7.78;;;5.45;;
16579;SDS011;8402;51.466;6.806;2023-09-12T13:03:03;7.60;;;6.72;;
16579;SDS011;8402;51.466;6.806;2023-09-12T13:05:33;8.23;;;7.30;;
16579;SDS011;8402;51.466;6.806;2023-09-12T13:08:06;9.48;;;7.78;;
16579;SDS011;8402;51.466;6.806;2023-09-12T13:10:36;8.52;;;7.63;;
16579;SDS011;8402;51.466;6.806;2023-09-12T13:13:09;7.65;;;5.45;;
16579;SDS011;8402;51.466;6.806;2023-09-12T13:15:39;6.50;;;5.40;;
16579;SDS011;8402;51.466;6.806;2023-09-12T13:18:09;5.50;;;5.00;;
16579;SDS011;8402;51.466;6.806;2023-09-12T13:20:39;6.18;;;5.25;;
16579;SDS011;8402;51.466;6.806;2023-09-12T13:23:11;6.30;;;5.53;;
16579;SDS011;8402;51.466;6.806;2023-09-12T13:25:41;7.28;;;5.90;;
16579;SDS011;8402;51.466;6.806;2023-09-12T13:28:11;6.90;;;5.65;;
16579;SDS011;8402;51.466;6.806;2023-09-12T13:30:41;6.72;;;5.68;;
16579;SDS011;8402;51.466;6.806;2023-09-12T13:33:11;6.18;;;5.53;;
16579;SDS011;8402;51.466;6.806;2023-09-12T13:35:42;7.10;;;5.22;;
16579;SDS011;8402;51.466;6.806;2023-09-12T13:38:14;7.28;;;5.38;;
16579;SDS011;8402;51.466;6.806;2023-09-12T13:40:45;7.10;;;5.72;;
16579;SDS011;8402;51.466;6.806;2023-09-12T13:43:16;5.47;;;4.97;;
16579;SDS011;8402;51.466;6.806;2023-09-12T13:45:46;7.80;;;5.20;;
16579;SDS011;8402;51.466;6.806;2023-09-12T13:48:16;8.23;;;6.00;;
16579;SDS011;8402;51.466;6.806;2023-09-12T13:50:46;9.05;;;5.95;;
16579;SDS011;8402;51.466;6.806;2023-09-12T13:53:19;8.35;;;5.88;;
16579;SDS011;8402;51.466;6.806;2023-09-12T13:55:48;6.82;;;6.07;;
16579;SDS011;8402;51.466;6.806;2023-09-12T13:58:38;6.55;;;5.85;;
16579;SDS011;8402;51.466;6.806;2023-09-12T14:01:17;7.13;;;6.43;;
16579;SDS011;8402;51.466;6.806;2023-09-12T14:03:59;6.50;;;5.78;;
16579;SDS011;8402;51.466;6.806;2023-09-12T14:06:33;6.95;;;6.25;;
16579;SDS011;8402;51.466;6.806;2023-09-12T14:09:07;10.13;;;6.80;;
16579;SDS011;8402;51.466;6.806;2023-09-12T14:11:38;8.60;;;6.10;;
16579;SDS011;8402;51.466;6.806;2023-09-12T14:14:08;9.32;;;6.95;;
16579;SDS011;8402;51.466;6.806;2023-09-12T14:16:42;7.80;;;6.15;;
16579;SDS011;8402;51.466;6.806;2023-09-12T14:19:14;7.03;;;5.88;;
16579;SDS011;8402;51.466;6.806;2023-09-12T14:21:46;8.55;;;5.45;;
16579;SDS011;8402;51.466;6.806;2023-09-12T14:24:22;7.35;;;6.10;;
16579;SDS011;8402;51.466;6.806;2023-09-12T14:26:52;9.25;;;7.07;;
16579;SDS011;8402;51.466;6.806;2023-09-12T14:29:23;8.40;;;7.00;;
16579;SDS011;8402;51.466;6.806;2023-09-12T14:31:56;7.57;;;6.10;;
16579;SDS011;8402;51.466;6.806;2023-09-12T14:34:27;7.18;;;6.20;;
16579;SDS011;8402;51.466;6.806;2023-09-12T14:36:59;6.90;;;6.20;;
16579;SDS011;8402;51.466;6.806;2023-09-12T14:39:32;7.20;;;6.50;;
16579;SDS011;8402;51.466;6.806;2023-09-12T14:42:02;8.90;;;6.90;;
16579;SDS011;8402;51.466;6.806;2023-09-12T14:44:35;7.63;;;6.60;;
16579;SDS011;8402;51.466;6.806;2023-09-12T14:47:05;6.40;;;5.80;;
16579;SDS011;8402;51.466;6.806;2023-09-12T14:49:35;8.02;;;6.13;;
16579;SDS011;8402;51.466;6.806;2023-09-12T14:52:17;6.15;;;5.55;;
16579;SDS011;8402;51.466;6.806;2023-09-12T14:54:55;7.50;;;5.88;;
16579;SDS011;8402;51.466;6.806;2023-09-12T14:57:25;7.40;;;5.32;;
16579;SDS011;8402;51.466;6.806;2023-09-12T14:59:55;8.00;;;6.32;;
16579;SDS011;8402;51.466;6.806;2023-09-12T15:02:27;6.65;;;5.80;;
16579;SDS011;8402;51.466;6.806;2023-09-12T15:04:58;9.40;;;5.70;;
16579;SDS011;8402;51.466;6.806;2023-09-12T15:07:30;7.88;;;6.00;;
16579;SDS011;8402;51.466;6.806;2023-09-12T15:10:03;7.10;;;5.82;;
16579;SDS011;8402;51.466;6.806;2023-09-12T15:12:34;6.60;;;5.82;;
16579;SDS011;8402;51.466;6.806;2023-09-12T15:15:05;6.60;;;5.68;;
16579;SDS011;8402;51.466;6.806;2023-09-12T15:17:35;7.38;;;5.82;;
16579;SDS011;8402;51.466;6.806;2023-09-12T15:20:07;8.27;;;5.97;;